METAR Data
IDs: Format: Raw Decoded Include TAF

Data at: 2131 UTC 18 Apr 2021

OOMS 182050Z VRB01KT CAVOK 27/22 Q1010 NOSIG